sensor_id;sensor_type;location;lat;lon;timestamp;P1;durP1;ratioP1;P2;durP2;ratioP2
45208;SDS011;30951;43.994;26.260;2023-03-03T00:00:42;44.03;;;22.88;;
45208;SDS011;30951;43.994;26.260;2023-03-03T00:03:09;38.45;;;23.63;;
45208;SDS011;30951;43.994;26.260;2023-03-03T00:05:35;46.20;;;25.17;;
45208;SDS011;30951;43.994;26.260;2023-03-03T00:08:02;39.50;;;23.45;;
45208;SDS011;30951;43.994;26.260;2023-03-03T00:10:28;38.38;;;22.95;;
45208;SDS011;30951;43.994;26.260;2023-03-03T00:12:54;44.47;;;25.50;;
45208;SDS011;30951;43.994;26.260;2023-03-03T00:15:21;37.63;;;23.30;;
45208;SDS011;30951;43.994;26.260;2023-03-03T00:17:47;40.65;;;24.20;;
45208;SDS011;30951;43.994;26.260;2023-03-03T00:20:30;42.40;;;25.38;;
45208;SDS011;30951;43.994;26.260;2023-03-03T00:23:23;44.42;;;24.48;;
45208;SDS011;30951;43.994;26.260;2023-03-03T00:25:53;40.65;;;24.50;;
45208;SDS011;30951;43.994;26.260;2023-03-03T00:31:00;44.45;;;24.10;;
45208;SDS011;30951;43.994;26.260;2023-03-03T00:33:29;42.97;;;24.85;;
45208;SDS011;30951;43.994;26.260;2023-03-03T00:36:39;41.08;;;24.58;;
45208;SDS011;30951;43.994;26.260;2023-03-03T00:41:55;47.80;;;28.30;;
45208;SDS011;30951;43.994;26.260;2023-03-03T00:46:56;49.08;;;27.70;;
45208;SDS011;30951;43.994;26.260;2023-03-03T00:49:40;47.78;;;27.58;;
45208;SDS011;30951;43.994;26.260;2023-03-03T00:52:15;49.40;;;25.98;;
45208;SDS011;30951;43.994;26.260;2023-03-03T00:54:42;49.63;;;28.45;;
45208;SDS011;30951;43.994;26.260;2023-03-03T00:57:09;45.17;;;25.45;;
45208;SDS011;30951;43.994;26.260;2023-03-03T00:59:37;45.38;;;26.90;;
45208;SDS011;30951;43.994;26.260;2023-03-03T01:02:03;43.72;;;24.83;;
45208;SDS011;30951;43.994;26.260;2023-03-03T01:04:28;41.15;;;24.63;;
45208;SDS011;30951;43.994;26.260;2023-03-03T01:06:54;46.50;;;26.67;;
45208;SDS011;30951;43.994;26.260;2023-03-03T01:09:19;48.75;;;27.60;;
45208;SDS011;30951;43.994;26.260;2023-03-03T01:11:45;46.20;;;26.90;;
45208;SDS011;30951;43.994;26.260;2023-03-03T01:14:10;46.08;;;27.70;;
45208;SDS011;30951;43.994;26.260;2023-03-03T01:16:36;43.08;;;23.88;;
45208;SDS011;30951;43.994;26.260;2023-03-03T01:19:02;48.35;;;26.70;;
45208;SDS011;30951;43.994;26.260;2023-03-03T01:21:27;53.60;;;27.35;;
45208;SDS011;30951;43.994;26.260;2023-03-03T01:23:53;44.97;;;25.45;;
45208;SDS011;30951;43.994;26.260;2023-03-03T01:26:18;43.95;;;26.20;;
45208;SDS011;30951;43.994;26.260;2023-03-03T01:28:44;45.70;;;25.65;;
45208;SDS011;30951;43.994;26.260;2023-03-03T01:31:09;45.25;;;26.63;;
45208;SDS011;30951;43.994;26.260;2023-03-03T01:33:35;52.38;;;26.45;;
45208;SDS011;30951;43.994;26.260;2023-03-03T01:36:01;47.30;;;26.85;;
45208;SDS011;30951;43.994;26.260;2023-03-03T01:38:27;48.47;;;27.48;;
45208;SDS011;30951;43.994;26.260;2023-03-03T01:40:54;43.83;;;27.05;;
45208;SDS011;30951;43.994;26.260;2023-03-03T01:43:21;50.85;;;28.10;;
45208;SDS011;30951;43.994;26.260;2023-03-03T01:48:13;48.55;;;27.60;;
45208;SDS011;30951;43.994;26.260;2023-03-03T01:50:47;47.13;;;27.08;;
45208;SDS011;30951;43.994;26.260;2023-03-03T01:53:27;47.28;;;27.15;;
45208;SDS011;30951;43.994;26.260;2023-03-03T01:55:57;52.75;;;27.40;;
45208;SDS011;30951;43.994;26.260;2023-03-03T01:58:30;43.83;;;25.92;;
45208;SDS011;30951;43.994;26.260;2023-03-03T02:01:01;42.33;;;26.08;;
45208;SDS011;30951;43.994;26.260;2023-03-03T02:03:29;47.38;;;26.38;;
45208;SDS011;30951;43.994;26.260;2023-03-03T02:05:56;54.88;;;27.20;;
45208;SDS011;30951;43.994;26.260;2023-03-03T02:08:24;46.03;;;26.55;;
45208;SDS011;30951;43.994;26.260;2023-03-03T02:10:52;49.33;;;28.30;;
45208;SDS011;30951;43.994;26.260;2023-03-03T02:13:18;47.50;;;27.10;;
45208;SDS011;30951;43.994;26.260;2023-03-03T02:15:44;48.50;;;28.02;;
45208;SDS011;30951;43.994;26.260;2023-03-03T02:18:12;47.80;;;27.42;;
45208;SDS011;30951;43.994;26.260;2023-03-03T02:20:50;56.13;;;29.00;;
45208;SDS011;30951;43.994;26.260;2023-03-03T02:26:12;47.35;;;26.17;;
45208;SDS011;30951;43.994;26.260;2023-03-03T02:28:39;46.38;;;26.40;;
45208;SDS011;30951;43.994;26.260;2023-03-03T02:31:09;46.33;;;24.65;;
45208;SDS011;30951;43.994;26.260;2023-03-03T02:36:06;46.13;;;26.35;;
45208;SDS011;30951;43.994;26.260;2023-03-03T02:46:17;51.70;;;28.77;;
45208;SDS011;30951;43.994;26.260;2023-03-03T02:48:43;48.40;;;28.00;;
45208;SDS011;30951;43.994;26.260;2023-03-03T02:51:09;56.45;;;31.02;;
45208;SDS011;30951;43.994;26.260;2023-03-03T02:53:34;47.38;;;28.30;;
45208;SDS011;30951;43.994;26.260;2023-03-03T02:56:00;47.47;;;28.15;;
45208;SDS011;30951;43.994;26.260;2023-03-03T02:58:26;54.10;;;28.67;;
45208;SDS011;30951;43.994;26.260;2023-03-03T03:00:51;48.90;;;27.77;;
45208;SDS011;30951;43.994;26.260;2023-03-03T03:03:17;43.13;;;27.02;;
45208;SDS011;30951;43.994;26.260;2023-03-03T03:05:42;46.53;;;27.10;;
45208;SDS011;30951;43.994;26.260;2023-03-03T03:08:08;47.05;;;27.60;;
45208;SDS011;30951;43.994;26.260;2023-03-03T03:10:33;47.65;;;28.02;;
45208;SDS011;30951;43.994;26.260;2023-03-03T03:13:00;48.05;;;28.25;;
45208;SDS011;30951;43.994;26.260;2023-03-03T03:15:26;47.85;;;27.55;;
45208;SDS011;30951;43.994;26.260;2023-03-03T03:17:51;51.28;;;28.20;;
45208;SDS011;30951;43.994;26.260;2023-03-03T03:20:17;50.78;;;29.65;;
45208;SDS011;30951;43.994;26.260;2023-03-03T03:22:42;50.25;;;29.05;;
45208;SDS011;30951;43.994;26.260;2023-03-03T03:25:08;51.03;;;29.20;;
45208;SDS011;30951;43.994;26.260;2023-03-03T03:27:34;42.60;;;26.67;;
45208;SDS011;30951;43.994;26.260;2023-03-03T03:29:59;42.47;;;25.75;;
45208;SDS011;30951;43.994;26.260;2023-03-03T03:32:25;47.78;;;27.02;;
45208;SDS011;30951;43.994;26.260;2023-03-03T03:34:50;43.30;;;26.30;;
45208;SDS011;30951;43.994;26.260;2023-03-03T03:37:16;46.90;;;26.60;;
45208;SDS011;30951;43.994;26.260;2023-03-03T03:39:41;41.65;;;24.88;;
45208;SDS011;30951;43.994;26.260;2023-03-03T03:42:07;46.95;;;27.08;;
45208;SDS011;30951;43.994;26.260;2023-03-03T03:44:33;51.08;;;28.67;;
45208;SDS011;30951;43.994;26.260;2023-03-03T03:46:58;53.15;;;29.05;;
45208;SDS011;30951;43.994;26.260;2023-03-03T03:49:24;46.17;;;30.35;;
45208;SDS011;30951;43.994;26.260;2023-03-03T03:51:49;46.40;;;27.35;;
45208;SDS011;30951;43.994;26.260;2023-03-03T03:54:15;46.60;;;26.88;;
45208;SDS011;30951;43.994;26.260;2023-03-03T03:56:40;41.78;;;27.38;;
45208;SDS011;30951;43.994;26.260;2023-03-03T03:59:06;45.58;;;28.20;;
45208;SDS011;30951;43.994;26.260;2023-03-03T04:01:32;45.70;;;28.05;;
45208;SDS011;30951;43.994;26.260;2023-03-03T04:03:57;47.63;;;26.40;;
45208;SDS011;30951;43.994;26.260;2023-03-03T04:06:23;50.47;;;27.98;;
45208;SDS011;30951;43.994;26.260;2023-03-03T04:08:48;47.92;;;28.00;;
45208;SDS011;30951;43.994;26.260;2023-03-03T04:11:14;50.88;;;26.95;;
45208;SDS011;30951;43.994;26.260;2023-03-03T04:13:39;47.35;;;26.13;;
45208;SDS011;30951;43.994;26.260;2023-03-03T04:16:05;46.95;;;26.80;;
45208;SDS011;30951;43.994;26.260;2023-03-03T04:18:30;49.80;;;28.48;;
45208;SDS011;30951;43.994;26.260;2023-03-03T04:20:56;44.63;;;26.67;;
45208;SDS011;30951;43.994;26.260;2023-03-03T04:23:21;45.47;;;26.95;;
45208;SDS011;30951;43.994;26.260;2023-03-03T04:25:48;47.08;;;27.15;;
45208;SDS011;30951;43.994;26.260;2023-03-03T04:28:14;41.67;;;26.60;;
45208;SDS011;30951;43.994;26.260;2023-03-03T04:30:40;47.13;;;27.42;;
45208;SDS011;30951;43.994;26.260;2023-03-03T04:33:05;47.33;;;27.20;;
45208;SDS011;30951;43.994;26.260;2023-03-03T04:35:31;50.50;;;29.55;;
45208;SDS011;30951;43.994;26.260;2023-03-03T04:37:56;51.75;;;29.13;;
45208;SDS011;30951;43.994;26.260;2023-03-03T04:40:22;54.35;;;30.25;;
45208;SDS011;30951;43.994;26.260;2023-03-03T04:42:48;49.97;;;28.65;;
45208;SDS011;30951;43.994;26.260;2023-03-03T04:45:13;53.30;;;29.98;;
45208;SDS011;30951;43.994;26.260;2023-03-03T04:47:39;50.45;;;29.65;;
45208;SDS011;30951;43.994;26.260;2023-03-03T04:50:04;48.85;;;28.85;;
45208;SDS011;30951;43.994;26.260;2023-03-03T04:52:30;48.08;;;28.08;;
45208;SDS011;30951;43.994;26.260;2023-03-03T04:54:56;50.45;;;29.73;;
45208;SDS011;30951;43.994;26.260;2023-03-03T04:57:21;45.13;;;27.80;;
45208;SDS011;30951;43.994;26.260;2023-03-03T04:59:47;43.28;;;26.60;;
45208;SDS011;30951;43.994;26.260;2023-03-03T05:02:12;40.95;;;25.77;;
45208;SDS011;30951;43.994;26.260;2023-03-03T05:04:38;51.13;;;28.23;;
45208;SDS011;30951;43.994;26.260;2023-03-03T05:07:04;51.88;;;26.27;;
45208;SDS011;30951;43.994;26.260;2023-03-03T05:09:29;48.42;;;26.25;;
45208;SDS011;30951;43.994;26.260;2023-03-03T05:11:55;48.45;;;27.42;;
45208;SDS011;30951;43.994;26.260;2023-03-03T05:14:20;43.53;;;26.92;;
45208;SDS011;30951;43.994;26.260;2023-03-03T05:16:46;44.28;;;27.33;;
45208;SDS011;30951;43.994;26.260;2023-03-03T05:19:12;48.60;;;26.92;;
45208;SDS011;30951;43.994;26.260;2023-03-03T05:21:37;44.30;;;25.38;;
45208;SDS011;30951;43.994;26.260;2023-03-03T05:24:07;44.75;;;28.02;;
45208;SDS011;30951;43.994;26.260;2023-03-03T05:26:33;49.50;;;27.85;;
45208;SDS011;30951;43.994;26.260;2023-03-03T05:28:59;49.45;;;28.83;;
45208;SDS011;30951;43.994;26.260;2023-03-03T05:31:24;46.15;;;26.80;;
45208;SDS011;30951;43.994;26.260;2023-03-03T05:33:51;55.53;;;28.25;;
45208;SDS011;30951;43.994;26.260;2023-03-03T05:36:17;45.97;;;27.75;;
45208;SDS011;30951;43.994;26.260;2023-03-03T05:38:43;50.58;;;26.85;;
45208;SDS011;30951;43.994;26.260;2023-03-03T05:41:08;44.08;;;28.63;;
45208;SDS011;30951;43.994;26.260;2023-03-03T05:43:34;45.45;;;28.10;;
45208;SDS011;30951;43.994;26.260;2023-03-03T05:45:59;50.97;;;28.70;;
45208;SDS011;30951;43.994;26.260;2023-03-03T05:48:25;48.78;;;29.35;;
45208;SDS011;30951;43.994;26.260;2023-03-03T05:50:51;46.70;;;29.25;;
45208;SDS011;30951;43.994;26.260;2023-03-03T05:53:17;46.85;;;28.42;;
45208;SDS011;30951;43.994;26.260;2023-03-03T05:55:42;44.45;;;28.35;;
45208;SDS011;30951;43.994;26.260;2023-03-03T05:58:08;44.25;;;27.23;;
45208;SDS011;30951;43.994;26.260;2023-03-03T06:00:33;42.70;;;26.75;;
45208;SDS011;30951;43.994;26.260;2023-03-03T06:02:59;48.35;;;28.92;;
45208;SDS011;30951;43.994;26.260;2023-03-03T06:05:25;45.15;;;28.63;;
45208;SDS011;30951;43.994;26.260;2023-03-03T06:07:50;63.17;;;32.65;;
45208;SDS011;30951;43.994;26.260;2023-03-03T06:10:16;58.50;;;33.60;;
45208;SDS011;30951;43.994;26.260;2023-03-03T06:12:41;61.13;;;32.90;;
45208;SDS011;30951;43.994;26.260;2023-03-03T06:15:07;68.25;;;38.15;;
45208;SDS011;30951;43.994;26.260;2023-03-03T06:17:34;53.17;;;29.98;;
45208;SDS011;30951;43.994;26.260;2023-03-03T06:20:00;41.78;;;26.90;;
45208;SDS011;30951;43.994;26.260;2023-03-03T06:22:25;51.60;;;29.80;;
45208;SDS011;30951;43.994;26.260;2023-03-03T06:24:51;82.80;;;42.55;;
45208;SDS011;30951;43.994;26.260;2023-03-03T06:27:17;55.45;;;31.38;;
45208;SDS011;30951;43.994;26.260;2023-03-03T06:29:43;52.92;;;28.00;;
45208;SDS011;30951;43.994;26.260;2023-03-03T06:32:08;86.65;;;49.65;;
45208;SDS011;30951;43.994;26.260;2023-03-03T06:34:34;71.05;;;44.75;;
45208;SDS011;30951;43.994;26.260;2023-03-03T06:37:00;86.05;;;54.80;;
45208;SDS011;30951;43.994;26.260;2023-03-03T06:39:25;52.78;;;32.90;;
45208;SDS011;30951;43.994;26.260;2023-03-03T06:41:51;45.80;;;27.23;;
45208;SDS011;30951;43.994;26.260;2023-03-03T06:44:16;41.20;;;25.55;;
45208;SDS011;30951;43.994;26.260;2023-03-03T06:46:41;45.53;;;28.08;;
45208;SDS011;30951;43.994;26.260;2023-03-03T06:49:07;43.25;;;26.25;;
45208;SDS011;30951;43.994;26.260;2023-03-03T06:51:33;47.50;;;29.33;;
45208;SDS011;30951;43.994;26.260;2023-03-03T06:54:08;38.70;;;25.27;;
45208;SDS011;30951;43.994;26.260;2023-03-03T06:56:41;39.45;;;24.88;;
45208;SDS011;30951;43.994;26.260;2023-03-03T06:59:18;41.90;;;25.30;;
45208;SDS011;30951;43.994;26.260;2023-03-03T07:01:45;42.80;;;25.85;;
45208;SDS011;30951;43.994;26.260;2023-03-03T07:04:16;39.15;;;24.92;;
45208;SDS011;30951;43.994;26.260;2023-03-03T07:06:50;41.63;;;25.00;;
45208;SDS011;30951;43.994;26.260;2023-03-03T07:09:25;40.47;;;25.17;;
45208;SDS011;30951;43.994;26.260;2023-03-03T07:11:52;37.67;;;23.58;;
45208;SDS011;30951;43.994;26.260;2023-03-03T07:14:30;34.53;;;23.30;;
45208;SDS011;30951;43.994;26.260;2023-03-03T07:16:56;42.08;;;27.92;;
45208;SDS011;30951;43.994;26.260;2023-03-03T07:19:32;41.60;;;24.42;;
45208;SDS011;30951;43.994;26.260;2023-03-03T07:22:00;36.75;;;22.85;;
45208;SDS011;30951;43.994;26.260;2023-03-03T07:24:56;37.65;;;23.98;;
45208;SDS011;30951;43.994;26.260;2023-03-03T07:27:25;39.83;;;22.65;;
45208;SDS011;30951;43.994;26.260;2023-03-03T07:32:41;47.67;;;30.50;;
45208;SDS011;30951;43.994;26.260;2023-03-03T07:35:20;40.78;;;25.80;;
45208;SDS011;30951;43.994;26.260;2023-03-03T07:37:49;43.63;;;26.63;;
45208;SDS011;30951;43.994;26.260;2023-03-03T07:40:58;40.95;;;24.98;;
45208;SDS011;30951;43.994;26.260;2023-03-03T07:45:48;48.30;;;28.77;;
45208;SDS011;30951;43.994;26.260;2023-03-03T07:48:23;40.88;;;25.23;;
45208;SDS011;30951;43.994;26.260;2023-03-03T07:50:51;42.97;;;27.33;;
45208;SDS011;30951;43.994;26.260;2023-03-03T07:53:26;45.35;;;28.55;;
45208;SDS011;30951;43.994;26.260;2023-03-03T07:55:54;43.50;;;26.88;;
45208;SDS011;30951;43.994;26.260;2023-03-03T07:58:21;39.65;;;24.92;;
45208;SDS011;30951;43.994;26.260;2023-03-03T08:03:44;39.72;;;24.23;;
45208;SDS011;30951;43.994;26.260;2023-03-03T08:06:30;42.63;;;26.23;;
45208;SDS011;30951;43.994;26.260;2023-03-03T08:09:18;48.45;;;29.60;;
45208;SDS011;30951;43.994;26.260;2023-03-03T08:14:35;40.72;;;25.25;;
45208;SDS011;30951;43.994;26.260;2023-03-03T08:17:06;43.47;;;25.17;;
45208;SDS011;30951;43.994;26.260;2023-03-03T08:19:38;47.33;;;26.70;;
45208;SDS011;30951;43.994;26.260;2023-03-03T08:24:48;42.60;;;24.25;;
45208;SDS011;30951;43.994;26.260;2023-03-03T08:27:13;39.70;;;25.40;;
45208;SDS011;30951;43.994;26.260;2023-03-03T08:29:39;36.42;;;23.00;;
45208;SDS011;30951;43.994;26.260;2023-03-03T08:32:04;46.13;;;30.25;;
45208;SDS011;30951;43.994;26.260;2023-03-03T08:34:30;38.45;;;23.30;;
45208;SDS011;30951;43.994;26.260;2023-03-03T08:36:55;53.20;;;31.77;;
45208;SDS011;30951;43.994;26.260;2023-03-03T08:39:22;76.43;;;42.20;;
45208;SDS011;30951;43.994;26.260;2023-03-03T08:41:48;51.13;;;30.90;;
45208;SDS011;30951;43.994;26.260;2023-03-03T08:44:14;77.75;;;43.47;;
45208;SDS011;30951;43.994;26.260;2023-03-03T08:46:39;39.25;;;23.30;;
45208;SDS011;30951;43.994;26.260;2023-03-03T08:49:04;54.28;;;31.70;;
45208;SDS011;30951;43.994;26.260;2023-03-03T08:51:30;37.45;;;23.77;;
45208;SDS011;30951;43.994;26.260;2023-03-03T08:53:58;31.50;;;21.08;;
45208;SDS011;30951;43.994;26.260;2023-03-03T08:56:23;37.88;;;25.30;;
45208;SDS011;30951;43.994;26.260;2023-03-03T08:58:49;39.08;;;23.25;;
45208;SDS011;30951;43.994;26.260;2023-03-03T09:01:14;33.38;;;22.45;;
45208;SDS011;30951;43.994;26.260;2023-03-03T09:03:43;33.00;;;20.33;;
45208;SDS011;30951;43.994;26.260;2023-03-03T09:06:09;43.47;;;30.40;;
45208;SDS011;30951;43.994;26.260;2023-03-03T09:08:35;29.83;;;20.73;;
45208;SDS011;30951;43.994;26.260;2023-03-03T09:11:00;38.45;;;23.08;;
45208;SDS011;30951;43.994;26.260;2023-03-03T09:13:28;39.90;;;22.25;;
45208;SDS011;30951;43.994;26.260;2023-03-03T09:15:54;28.75;;;19.20;;
45208;SDS011;30951;43.994;26.260;2023-03-03T09:20:53;32.67;;;21.27;;
45208;SDS011;30951;43.994;26.260;2023-03-03T09:29:08;28.63;;;19.42;;
45208;SDS011;30951;43.994;26.260;2023-03-03T09:34:55;27.80;;;19.13;;
45208;SDS011;30951;43.994;26.260;2023-03-03T09:36:58;30.50;;;18.90;;
45208;SDS011;30951;43.994;26.260;2023-03-03T09:39:25;34.40;;;23.20;;
45208;SDS011;30951;43.994;26.260;2023-03-03T09:53:01;29.48;;;20.13;;
45208;SDS011;30951;43.994;26.260;2023-03-03T09:55:53;33.70;;;20.73;;
45208;SDS011;30951;43.994;26.260;2023-03-03T10:12:37;30.48;;;20.00;;
45208;SDS011;30951;43.994;26.260;2023-03-03T10:15:14;36.97;;;22.98;;
45208;SDS011;30951;43.994;26.260;2023-03-03T10:20:37;33.22;;;19.17;;
45208;SDS011;30951;43.994;26.260;2023-03-03T10:36:21;33.45;;;20.65;;
45208;SDS011;30951;43.994;26.260;2023-03-03T10:41:42;35.47;;;23.97;;
45208;SDS011;30951;43.994;26.260;2023-03-03T10:46:59;27.88;;;20.33;;
45208;SDS011;30951;43.994;26.260;2023-03-03T10:55:12;36.50;;;23.52;;
45208;SDS011;30951;43.994;26.260;2023-03-03T10:58:16;39.20;;;23.85;;
45208;SDS011;30951;43.994;26.260;2023-03-03T11:15:02;29.67;;;19.05;;
45208;SDS011;30951;43.994;26.260;2023-03-03T11:18:02;78.90;;;36.70;;
45208;SDS011;30951;43.994;26.260;2023-03-03T11:26:08;45.20;;;26.92;;
45208;SDS011;30951;43.994;26.260;2023-03-03T11:28:46;39.22;;;23.67;;
45208;SDS011;30951;43.994;26.260;2023-03-03T11:36:54;44.22;;;25.10;;
45208;SDS011;30951;43.994;26.260;2023-03-03T11:39:22;36.50;;;25.00;;
45208;SDS011;30951;43.994;26.260;2023-03-03T11:42:13;37.75;;;23.52;;
45208;SDS011;30951;43.994;26.260;2023-03-03T11:45:19;35.83;;;22.98;;
45208;SDS011;30951;43.994;26.260;2023-03-03T11:58:56;39.67;;;26.48;;
45208;SDS011;30951;43.994;26.260;2023-03-03T12:01:40;40.72;;;25.02;;
45208;SDS011;30951;43.994;26.260;2023-03-03T12:04:12;44.72;;;26.08;;
45208;SDS011;30951;43.994;26.260;2023-03-03T12:12:17;33.90;;;23.23;;
45208;SDS011;30951;43.994;26.260;2023-03-03T12:15:05;35.75;;;23.92;;
45208;SDS011;30951;43.994;26.260;2023-03-03T12:25:41;44.22;;;28.55;;
45208;SDS011;30951;43.994;26.260;2023-03-03T12:36:21;35.97;;;24.55;;
45208;SDS011;30951;43.994;26.260;2023-03-03T12:41:52;46.25;;;30.58;;
45208;SDS011;30951;43.994;26.260;2023-03-03T12:46:56;41.97;;;26.45;;
45208;SDS011;30951;43.994;26.260;2023-03-03T12:49:28;46.47;;;26.15;;
45208;SDS011;30951;43.994;26.260;2023-03-03T12:52:24;37.20;;;24.25;;
45208;SDS011;30951;43.994;26.260;2023-03-03T13:00:53;62.35;;;37.83;;
45208;SDS011;30951;43.994;26.260;2023-03-03T13:06:17;49.60;;;31.17;;
45208;SDS011;30951;43.994;26.260;2023-03-03T13:11:35;43.47;;;27.58;;
45208;SDS011;30951;43.994;26.260;2023-03-03T13:19:28;46.00;;;26.77;;
45208;SDS011;30951;43.994;26.260;2023-03-03T13:21:59;44.00;;;25.77;;
45208;SDS011;30951;43.994;26.260;2023-03-03T13:24:38;44.13;;;25.08;;
45208;SDS011;30951;43.994;26.260;2023-03-03T13:27:18;36.85;;;24.05;;
45208;SDS011;30951;43.994;26.260;2023-03-03T13:29:55;42.08;;;25.70;;
45208;SDS011;30951;43.994;26.260;2023-03-03T13:32:37;40.50;;;25.60;;
45208;SDS011;30951;43.994;26.260;2023-03-03T13:35:14;40.20;;;24.20;;
45208;SDS011;30951;43.994;26.260;2023-03-03T13:37:45;42.33;;;25.58;;
45208;SDS011;30951;43.994;26.260;2023-03-03T13:50:37;43.25;;;28.90;;
45208;SDS011;30951;43.994;26.260;2023-03-03T13:55:42;39.97;;;24.70;;
45208;SDS011;30951;43.994;26.260;2023-03-03T13:58:24;40.42;;;25.67;;
45208;SDS011;30951;43.994;26.260;2023-03-03T14:03:39;53.92;;;31.63;;
45208;SDS011;30951;43.994;26.260;2023-03-03T14:06:17;55.65;;;37.22;;
45208;SDS011;30951;43.994;26.260;2023-03-03T14:17:14;37.72;;;22.25;;
45208;SDS011;30951;43.994;26.260;2023-03-03T14:23:03;43.80;;;27.33;;
45208;SDS011;30951;43.994;26.260;2023-03-03T14:25:53;65.15;;;37.13;;
45208;SDS011;30951;43.994;26.260;2023-03-03T14:28:28;55.92;;;33.05;;
45208;SDS011;30951;43.994;26.260;2023-03-03T14:31:08;63.95;;;35.58;;
45208;SDS011;30951;43.994;26.260;2023-03-03T14:42:45;66.90;;;37.97;;
45208;SDS011;30951;43.994;26.260;2023-03-03T14:45:28;80.38;;;44.40;;
45208;SDS011;30951;43.994;26.260;2023-03-03T14:50:50;126.93;;;58.45;;
45208;SDS011;30951;43.994;26.260;2023-03-03T14:55:44;138.85;;;58.75;;
45208;SDS011;30951;43.994;26.260;2023-03-03T15:03:46;86.90;;;45.08;;
45208;SDS011;30951;43.994;26.260;2023-03-03T15:12:02;117.43;;;53.47;;
45208;SDS011;30951;43.994;26.260;2023-03-03T15:14:50;123.60;;;51.55;;
45208;SDS011;30951;43.994;26.260;2023-03-03T15:17:37;82.88;;;51.58;;
45208;SDS011;30951;43.994;26.260;2023-03-03T15:30:52;96.32;;;53.78;;
45208;SDS011;30951;43.994;26.260;2023-03-03T15:33:30;93.18;;;52.13;;
45208;SDS011;30951;43.994;26.260;2023-03-03T15:41:37;83.63;;;43.13;;
45208;SDS011;30951;43.994;26.260;2023-03-03T16:02:55;62.25;;;36.00;;
45208;SDS011;30951;43.994;26.260;2023-03-03T16:05:30;60.75;;;35.42;;
45208;SDS011;30951;43.994;26.260;2023-03-03T16:08:23;66.10;;;38.65;;
45208;SDS011;30951;43.994;26.260;2023-03-03T16:25:05;67.40;;;41.42;;
45208;SDS011;30951;43.994;26.260;2023-03-03T16:27:35;72.78;;;45.13;;
45208;SDS011;30951;43.994;26.260;2023-03-03T16:35:53;73.00;;;46.17;;
45208;SDS011;30951;43.994;26.260;2023-03-03T16:38:31;76.82;;;46.97;;
45208;SDS011;30951;43.994;26.260;2023-03-03T16:41:10;74.72;;;46.53;;
45208;SDS011;30951;43.994;26.260;2023-03-03T16:43:44;77.10;;;47.53;;
45208;SDS011;30951;43.994;26.260;2023-03-03T16:46:21;71.93;;;47.17;;
45208;SDS011;30951;43.994;26.260;2023-03-03T16:51:33;70.20;;;43.03;;
45208;SDS011;30951;43.994;26.260;2023-03-03T16:54:10;76.30;;;45.05;;
45208;SDS011;30951;43.994;26.260;2023-03-03T16:56:47;72.35;;;42.25;;
45208;SDS011;30951;43.994;26.260;2023-03-03T17:05:28;75.75;;;47.30;;
45208;SDS011;30951;43.994;26.260;2023-03-03T17:10:54;82.22;;;47.00;;
45208;SDS011;30951;43.994;26.260;2023-03-03T17:19:05;89.93;;;50.17;;
45208;SDS011;30951;43.994;26.260;2023-03-03T17:35:45;96.15;;;55.95;;
45208;SDS011;30951;43.994;26.260;2023-03-03T17:41:13;106.35;;;58.63;;
45208;SDS011;30951;43.994;26.260;2023-03-03T17:43:59;98.45;;;55.45;;
45208;SDS011;30951;43.994;26.260;2023-03-03T17:46:33;97.72;;;55.80;;
45208;SDS011;30951;43.994;26.260;2023-03-03T17:51:52;106.03;;;62.30;;
45208;SDS011;30951;43.994;26.260;2023-03-03T18:05:15;114.22;;;62.92;;
45208;SDS011;30951;43.994;26.260;2023-03-03T18:16:14;110.18;;;64.60;;
45208;SDS011;30951;43.994;26.260;2023-03-03T18:35:30;112.75;;;63.90;;
45208;SDS011;30951;43.994;26.260;2023-03-03T18:40:58;106.05;;;56.25;;
45208;SDS011;30951;43.994;26.260;2023-03-03T18:48:51;112.53;;;64.65;;
45208;SDS011;30951;43.994;26.260;2023-03-03T18:56:49;103.25;;;57.53;;
45208;SDS011;30951;43.994;26.260;2023-03-03T19:00:11;105.55;;;59.25;;
45208;SDS011;30951;43.994;26.260;2023-03-03T19:02:50;104.63;;;55.35;;
45208;SDS011;30951;43.994;26.260;2023-03-03T19:05:22;99.38;;;54.88;;
45208;SDS011;30951;43.994;26.260;2023-03-03T19:12:48;115.65;;;60.38;;
45208;SDS011;30951;43.994;26.260;2023-03-03T19:17:55;105.20;;;54.28;;
45208;SDS011;30951;43.994;26.260;2023-03-03T19:20:38;103.75;;;58.45;;
45208;SDS011;30951;43.994;26.260;2023-03-03T19:23:12;120.43;;;63.80;;
45208;SDS011;30951;43.994;26.260;2023-03-03T19:25:39;129.05;;;69.55;;
45208;SDS011;30951;43.994;26.260;2023-03-03T19:30:52;111.82;;;61.08;;
45208;SDS011;30951;43.994;26.260;2023-03-03T19:36:27;122.50;;;67.53;;
45208;SDS011;30951;43.994;26.260;2023-03-03T19:52:21;125.22;;;64.32;;
45208;SDS011;30951;43.994;26.260;2023-03-03T19:54:59;116.57;;;63.30;;
45208;SDS011;30951;43.994;26.260;2023-03-03T19:57:35;117.50;;;65.97;;
45208;SDS011;30951;43.994;26.260;2023-03-03T20:08:39;113.15;;;59.72;;
45208;SDS011;30951;43.994;26.260;2023-03-03T20:16:36;110.50;;;54.25;;
45208;SDS011;30951;43.994;26.260;2023-03-03T20:22:08;108.13;;;58.60;;
45208;SDS011;30951;43.994;26.260;2023-03-03T20:35:33;109.35;;;59.17;;
45208;SDS011;30951;43.994;26.260;2023-03-03T20:41:17;110.45;;;57.20;;
45208;SDS011;30951;43.994;26.260;2023-03-03T20:46:38;109.13;;;58.03;;
45208;SDS011;30951;43.994;26.260;2023-03-03T20:59:51;106.63;;;56.63;;
45208;SDS011;30951;43.994;26.260;2023-03-03T21:05:14;101.88;;;52.45;;
45208;SDS011;30951;43.994;26.260;2023-03-03T21:07:55;110.63;;;57.60;;
45208;SDS011;30951;43.994;26.260;2023-03-03T21:10:26;117.43;;;58.13;;
45208;SDS011;30951;43.994;26.260;2023-03-03T21:12:54;137.52;;;66.65;;
45208;SDS011;30951;43.994;26.260;2023-03-03T21:17:48;119.35;;;61.55;;
45208;SDS011;30951;43.994;26.260;2023-03-03T21:22:44;118.45;;;62.47;;
45208;SDS011;30951;43.994;26.260;2023-03-03T21:31:09;156.00;;;76.45;;
45208;SDS011;30951;43.994;26.260;2023-03-03T21:36:15;252.63;;;122.38;;
45208;SDS011;30951;43.994;26.260;2023-03-03T21:38:43;212.45;;;103.18;;
45208;SDS011;30951;43.994;26.260;2023-03-03T21:41:10;174.00;;;88.00;;
45208;SDS011;30951;43.994;26.260;2023-03-03T21:43:42;188.63;;;96.15;;
45208;SDS011;30951;43.994;26.260;2023-03-03T21:46:09;163.50;;;84.95;;
45208;SDS011;30951;43.994;26.260;2023-03-03T21:48:39;142.73;;;71.68;;
45208;SDS011;30951;43.994;26.260;2023-03-03T21:51:06;135.20;;;68.20;;
45208;SDS011;30951;43.994;26.260;2023-03-03T21:53:31;130.55;;;66.57;;
45208;SDS011;30951;43.994;26.260;2023-03-03T21:55:57;130.95;;;65.22;;
45208;SDS011;30951;43.994;26.260;2023-03-03T21:58:23;128.95;;;66.38;;
45208;SDS011;30951;43.994;26.260;2023-03-03T22:00:48;122.00;;;62.33;;
45208;SDS011;30951;43.994;26.260;2023-03-03T22:03:14;132.82;;;65.40;;
45208;SDS011;30951;43.994;26.260;2023-03-03T22:05:41;132.82;;;63.17;;
45208;SDS011;30951;43.994;26.260;2023-03-03T22:08:06;126.60;;;62.20;;